Time;durP1;ratioP1;P1;durP2;ratioP2;P2;SDS_P1;SDS_P2;PMS_P1;PMS_P2;Temp;Humidity;BMP_temperature;BMP_pressure;BME280_temperature;BME280_humidity;BME280_pressure;Samples;Min_cycle;Max_cycle;Signal;HPM_P1;HPM_P2
2021/12/18 00:01:43;;;;;;;4.90;3.13;;;2.40;99.90;;;;;;5014877;28;20049;-76
2021/12/18 00:04:09;;;;;;;4.78;3.50;;;2.40;99.90;;;;;;5013630;28;20130;-76
2021/12/18 00:06:35;;;;;;;4.70;3.30;;;2.40;99.90;;;;;;5014941;28;20034;-77
2021/12/18 00:09:01;;;;;;;5.25;3.22;;;2.40;99.90;;;;;;5013484;28;20076;-77
2021/12/18 00:11:28;;;;;;;4.80;3.08;;;2.40;99.90;;;;;;5013496;28;20041;-77
2021/12/18 00:13:54;;;;;;;4.20;2.97;;;2.40;99.90;;;;;;5013608;28;20049;-77
2021/12/18 00:16:20;;;;;;;4.88;3.05;;;2.40;99.90;;;;;;5013530;28;20392;-77
2021/12/18 00:18:48;;;;;;;5.72;3.10;;;2.40;99.90;;;;;;5014575;28;20053;-77
2021/12/18 00:21:17;;;;;;;5.32;3.15;;;2.40;99.90;;;;;;5014679;28;20057;-77
2021/12/18 00:23:43;;;;;;;5.10;3.05;;;2.40;99.90;;;;;;5014546;28;20376;-76
2021/12/18 00:26:09;;;;;;;5.88;3.20;;;2.40;99.90;;;;;;5013292;28;20042;-77
2021/12/18 00:28:35;;;;;;;5.28;3.08;;;2.40;99.90;;;;;;5014822;28;20088;-77
2021/12/18 00:31:01;;;;;;;6.13;3.30;;;2.40;99.90;;;;;;5014364;28;20116;-77
2021/12/18 00:33:27;;;;;;;4.70;3.10;;;2.40;99.90;;;;;;5012673;28;20041;-77
2021/12/18 00:35:52;;;;;;;5.22;3.03;;;2.40;99.90;;;;;;5014777;28;20041;-77
2021/12/18 00:38:18;;;;;;;4.85;3.10;;;2.40;99.90;;;;;;5012994;28;20050;-77
2021/12/18 00:40:59;;;;;;;3.72;2.78;;;2.40;99.90;;;;;;5013118;28;20534;-77
2021/12/18 00:43:29;;;;;;;5.30;3.05;;;2.40;99.90;;;;;;5014183;28;20046;-77
2021/12/18 00:45:55;;;;;;;4.67;2.93;;;2.40;99.90;;;;;;5013336;28;20034;-77
2021/12/18 00:48:21;;;;;;;5.85;3.28;;;2.40;99.90;;;;;;5012790;28;20551;-77
2021/12/18 00:50:47;;;;;;;4.95;2.90;;;2.40;99.90;;;;;;5012661;28;20038;-77
2021/12/18 00:53:13;;;;;;;4.07;2.80;;;2.40;99.90;;;;;;5012852;28;20453;-77
2021/12/18 00:55:39;;;;;;;5.20;3.40;;;2.50;99.90;;;;;;5014203;28;20072;-77
2021/12/18 00:58:04;;;;;;;4.45;3.15;;;2.40;99.90;;;;;;5013014;28;20100;-77
2021/12/18 01:00:31;;;;;;;4.85;3.50;;;2.40;99.90;;;;;;5013900;28;20034;-77
2021/12/18 01:03:01;;;;;;;5.32;3.55;;;2.40;99.90;;;;;;5014057;28;20528;-77
2021/12/18 01:05:28;;;;;;;5.63;3.15;;;2.40;99.90;;;;;;5012179;28;20038;-77
2021/12/18 01:07:56;;;;;;;5.18;3.47;;;2.40;99.90;;;;;;5013006;28;20061;-76
2021/12/18 01:12:53;;;;;;;4.78;3.40;;;2.40;99.90;;;;;;5013985;28;20088;-76
2021/12/18 01:15:30;;;;;;;5.72;3.80;;;2.30;99.90;;;;;;5012616;28;20491;-77
2021/12/18 01:23:26;;;;;;;5.00;3.40;;;2.30;99.90;;;;;;5013861;28;20511;-77
2021/12/18 01:25:54;;;;;;;6.25;3.90;;;2.20;99.90;;;;;;5013909;28;20053;-76
2021/12/18 01:28:19;;;;;;;7.90;4.13;;;2.20;99.90;;;;;;4996227;28;20467;-77
2021/12/18 01:30:45;;;;;;;4.40;3.30;;;2.10;99.90;;;;;;5012602;28;20076;-76
2021/12/18 01:33:11;;;;;;;4.60;3.15;;;2.20;99.90;;;;;;5012820;28;20076;-76
2021/12/18 01:35:37;;;;;;;5.15;3.58;;;2.10;99.90;;;;;;5014079;28;20085;-76
2021/12/18 01:38:04;;;;;;;5.15;3.33;;;2.10;99.90;;;;;;5012441;28;20472;-77
2021/12/18 01:40:30;;;;;;;6.05;3.65;;;2.10;99.90;;;;;;5013723;28;20061;-77
2021/12/18 01:46:01;;;;;;;6.50;3.63;;;2.00;99.90;;;;;;5014048;28;20499;-76
2021/12/18 01:53:59;;;;;;;5.43;3.47;;;2.00;99.90;;;;;;5028105;28;20116;-76
2021/12/18 01:56:26;;;;;;;5.03;3.10;;;2.00;99.90;;;;;;5032134;28;20399;-77
2021/12/18 01:58:53;;;;;;;5.03;3.58;;;2.00;99.90;;;;;;5033268;28;20427;-77
2021/12/18 02:01:19;;;;;;;5.82;3.63;;;2.00;99.90;;;;;;5033062;28;20033;-77
2021/12/18 02:03:46;;;;;;;5.88;3.33;;;2.00;99.90;;;;;;5015475;28;20103;-76
2021/12/18 02:06:12;;;;;;;5.03;3.40;;;1.90;99.90;;;;;;5033027;28;20041;-76
2021/12/18 02:08:39;;;;;;;5.53;3.55;;;1.90;99.90;;;;;;5033534;28;20109;-76
2021/12/18 02:19:50;;;;;;;4.65;3.30;;;1.90;99.90;;;;;;5036395;28;20117;-76
2021/12/18 02:22:18;;;;;;;6.25;3.38;;;1.90;99.90;;;;;;5018661;28;20033;-77
2021/12/18 02:24:44;;;;;;;4.85;3.10;;;1.90;99.90;;;;;;5036533;28;20040;-77
2021/12/18 02:27:11;;;;;;;5.60;3.50;;;1.90;99.90;;;;;;5018687;28;20030;-76
2021/12/18 02:29:38;;;;;;;5.30;3.40;;;1.90;99.90;;;;;;5036547;28;20060;-76
2021/12/18 02:32:06;;;;;;;5.75;3.40;;;1.90;99.90;;;;;;5018802;28;20033;-76
2021/12/18 02:34:33;;;;;;;4.63;3.13;;;1.90;99.90;;;;;;5036151;28;20060;-76
2021/12/18 02:37:05;;;;;;;5.32;3.40;;;1.90;99.90;;;;;;5036392;28;20045;-76
2021/12/18 02:42:20;;;;;;;4.82;3.50;;;1.80;99.90;;;;;;5036035;28;20057;-76
2021/12/18 02:44:46;;;;;;;4.53;3.03;;;1.80;99.90;;;;;;5018565;28;20091;-77
2021/12/18 02:47:12;;;;;;;4.72;3.10;;;1.80;99.90;;;;;;5036130;28;20427;-77
2021/12/18 02:49:48;;;;;;;4.72;3.25;;;1.80;99.90;;;;;;5018344;28;20038;-77
2021/12/18 02:52:15;;;;;;;4.90;3.38;;;1.80;99.90;;;;;;5036015;28;20041;-76
2021/12/18 02:54:41;;;;;;;4.35;3.17;;;1.70;99.90;;;;;;5036282;28;20427;-76
2021/12/18 02:57:07;;;;;;;5.97;3.40;;;1.70;99.90;;;;;;5035999;28;20117;-77
2021/12/18 02:59:47;;;;;;;5.65;3.75;;;1.80;99.90;;;;;;5017971;28;20068;-76
2021/12/18 03:02:14;;;;;;;4.57;3.38;;;1.80;99.90;;;;;;5018585;28;20529;-77
2021/12/18 03:04:42;;;;;;;6.68;3.70;;;1.80;99.90;;;;;;5035859;28;20045;-78
2021/12/18 03:07:11;;;;;;;5.25;3.40;;;1.80;99.90;;;;;;5035958;28;20061;-77
2021/12/18 03:25:44;;;;;;;5.32;3.75;;;1.70;99.90;;;;;;5018960;28;20155;-77
2021/12/18 03:28:09;;;;;;;4.57;3.35;;;1.70;99.90;;;;;;5013780;28;20045;-76
2021/12/18 03:30:36;;;;;;;5.20;3.03;;;1.70;99.90;;;;;;5014664;28;20034;-76
2021/12/18 03:33:03;;;;;;;5.20;3.45;;;1.70;99.90;;;;;;4997988;28;20042;-78
2021/12/18 03:35:28;;;;;;;6.22;3.60;;;1.70;99.90;;;;;;5015842;28;20531;-77
2021/12/18 03:37:55;;;;;;;5.47;3.65;;;1.70;99.90;;;;;;4997871;28;20046;-77
2021/12/18 03:40:23;;;;;;;5.03;3.30;;;1.70;99.90;;;;;;4998255;28;20092;-77
2021/12/18 03:42:49;;;;;;;7.10;3.97;;;1.70;99.90;;;;;;4997281;28;20052;-76
2021/12/18 03:45:17;;;;;;;6.50;3.63;;;1.70;99.90;;;;;;5015307;28;20088;-76
2021/12/18 03:47:44;;;;;;;4.15;2.92;;;1.70;99.90;;;;;;5015280;28;20030;-77
2021/12/18 03:50:10;;;;;;;4.75;3.38;;;1.70;99.90;;;;;;5013966;28;20117;-76
2021/12/18 03:52:36;;;;;;;4.95;3.40;;;1.70;99.90;;;;;;4997395;28;20045;-76
2021/12/18 03:55:03;;;;;;;4.43;3.20;;;1.70;99.90;;;;;;4997466;28;20046;-76
2021/12/18 03:57:29;;;;;;;5.05;3.40;;;1.70;99.90;;;;;;5015071;28;20117;-76
2021/12/18 03:59:54;;;;;;;5.65;3.38;;;1.70;99.90;;;;;;4997179;28;20061;-77
2021/12/18 04:02:20;;;;;;;5.80;3.63;;;1.80;99.90;;;;;;4997171;28;20510;-77
2021/12/18 04:04:46;;;;;;;6.65;3.83;;;1.80;99.90;;;;;;5014919;28;20450;-76
2021/12/18 04:07:12;;;;;;;5.72;3.88;;;1.70;99.90;;;;;;5014808;28;20034;-76
2021/12/18 04:09:37;;;;;;;5.55;3.67;;;1.70;99.90;;;;;;4997088;28;20500;-76
2021/12/18 04:12:03;;;;;;;6.25;3.67;;;1.70;99.90;;;;;;4997130;28;20038;-76
2021/12/18 04:14:29;;;;;;;5.70;3.40;;;1.70;99.90;;;;;;4997173;28;20097;-76
2021/12/18 04:16:56;;;;;;;5.10;3.67;;;1.70;99.90;;;;;;5014960;28;20038;-77
2021/12/18 04:19:22;;;;;;;5.53;3.20;;;1.70;99.90;;;;;;4997239;28;20034;-77
2021/12/18 04:21:48;;;;;;;5.50;3.55;;;1.70;99.90;;;;;;4996422;28;20034;-76
2021/12/18 04:24:13;;;;;;;5.80;3.22;;;1.80;99.90;;;;;;4996962;28;20044;-77
2021/12/18 04:26:39;;;;;;;4.25;2.97;;;1.80;99.90;;;;;;4997028;28;20030;-76
2021/12/18 04:29:06;;;;;;;5.03;3.25;;;1.80;99.90;;;;;;4996735;28;20042;-76
2021/12/18 04:31:34;;;;;;;4.55;3.17;;;1.80;99.90;;;;;;4996844;28;20033;-76
2021/12/18 04:34:01;;;;;;;5.57;3.58;;;1.80;99.90;;;;;;5014422;28;20065;-76
2021/12/18 04:36:26;;;;;;;5.05;3.63;;;1.80;99.90;;;;;;4996988;28;20044;-76
2021/12/18 04:38:52;;;;;;;5.40;3.40;;;1.80;99.90;;;;;;5013589;28;20038;-76
2021/12/18 04:41:23;;;;;;;4.55;3.00;;;1.80;99.90;;;;;;5013798;28;20045;-76
2021/12/18 04:43:49;;;;;;;;;;;1.80;99.90;;;;;;5013682;28;20096;-77
2021/12/18 04:46:15;;;;;;;4.80;2.90;;;1.80;99.90;;;;;;4996733;28;19912;-76
2021/12/18 04:48:40;;;;;;;4.70;3.28;;;1.80;99.90;;;;;;5014586;28;20030;-77
2021/12/18 04:51:06;;;;;;;5.60;3.10;;;1.80;99.90;;;;;;5013399;28;20667;-76
2021/12/18 04:53:32;;;;;;;5.57;3.38;;;1.80;99.90;;;;;;4999033;28;20052;-76
2021/12/18 04:55:57;;;;;;;4.95;3.03;;;1.80;99.90;;;;;;5014501;28;20060;-76
2021/12/18 04:58:23;;;;;;;3.55;2.88;;;1.80;99.90;;;;;;5012924;28;20060;-76
2021/12/18 05:00:49;;;;;;;5.68;2.90;;;1.80;99.90;;;;;;5014288;28;20121;-76
2021/12/18 05:03:17;;;;;;;4.60;3.17;;;1.80;99.90;;;;;;5014124;28;20053;-76
2021/12/18 05:05:43;;;;;;;5.95;3.20;;;1.80;99.90;;;;;;5013147;28;20384;-76
2021/12/18 05:08:09;;;;;;;4.75;3.00;;;1.70;99.90;;;;;;5013616;28;20042;-77
2021/12/18 05:10:36;;;;;;;4.47;3.00;;;1.80;99.90;;;;;;5014032;28;20377;-77
2021/12/18 05:13:02;;;;;;;4.28;2.97;;;1.70;99.90;;;;;;5014110;28;20038;-77
2021/12/18 05:15:28;;;;;;;4.32;2.70;;;1.70;99.90;;;;;;5014322;28;20046;-77
2021/12/18 05:17:53;;;;;;;3.60;2.58;;;1.70;99.90;;;;;;4996381;28;20117;-77
2021/12/18 05:20:19;;;;;;;4.75;2.80;;;1.70;99.90;;;;;;5014058;28;20435;-76
2021/12/18 05:22:45;;;;;;;3.00;2.20;;;1.70;99.90;;;;;;5013777;28;20093;-76
2021/12/18 05:25:11;;;;;;;3.63;2.53;;;1.70;99.90;;;;;;5013690;28;20380;-77
2021/12/18 05:27:37;;;;;;;3.65;2.42;;;1.70;99.90;;;;;;5012502;28;20041;-77
2021/12/18 05:30:12;;;;;;;3.88;2.50;;;1.60;99.90;;;;;;4996227;28;20388;-77
2021/12/18 05:32:38;;;;;;;4.35;2.67;;;1.60;99.90;;;;;;4996191;28;20038;-78
2021/12/18 05:35:05;;;;;;;4.03;2.42;;;1.50;99.90;;;;;;4996489;28;20041;-79
2021/12/18 05:37:54;;;;;;;3.45;2.40;;;1.50;99.90;;;;;;5031861;28;20041;-78
2021/12/18 05:40:19;;;;;;;3.58;2.30;;;1.50;99.90;;;;;;5013150;28;20040;-78
2021/12/18 05:42:46;;;;;;;4.13;2.38;;;1.40;99.90;;;;;;5013575;28;20125;-78
2021/12/18 05:45:12;;;;;;;4.20;2.42;;;1.40;99.90;;;;;;5012171;28;20062;-78
2021/12/18 05:47:39;;;;;;;2.85;2.13;;;1.40;99.90;;;;;;5023889;28;20041;-78
2021/12/18 05:50:07;;;;;;;4.40;2.40;;;1.40;99.90;;;;;;5015500;28;20033;-78
2021/12/18 05:52:33;;;;;;;4.00;2.40;;;1.40;99.90;;;;;;5016924;28;20033;-79
2021/12/18 05:54:59;;;;;;;3.05;2.30;;;1.50;99.90;;;;;;5017272;28;20536;-78
2021/12/18 05:57:24;;;;;;;4.95;2.67;;;1.50;99.90;;;;;;5017046;28;20121;-78
2021/12/18 05:59:50;;;;;;;5.10;2.40;;;1.50;99.90;;;;;;4999799;28;20034;-78
2021/12/18 06:02:16;;;;;;;3.53;2.30;;;1.50;99.90;;;;;;5017040;28;20121;-78
2021/12/18 06:04:42;;;;;;;3.95;2.30;;;1.50;99.90;;;;;;4999357;28;20037;-77
2021/12/18 06:07:16;;;;;;;3.13;2.40;;;1.50;99.90;;;;;;5017103;28;20030;-80
2021/12/18 06:09:42;;;;;;;3.70;2.30;;;1.50;99.90;;;;;;5017306;28;20034;-79
2021/12/18 06:12:09;;;;;;;2.75;1.90;;;1.50;99.90;;;;;;5018087;28;20041;-84
2021/12/18 06:14:35;;;;;;;3.00;2.10;;;1.50;99.90;;;;;;5035922;28;20049;-82
2021/12/18 06:17:01;;;;;;;4.00;2.20;;;1.50;99.90;;;;;;5017894;28;20413;-79
2021/12/18 06:19:28;;;;;;;4.10;2.42;;;1.60;99.90;;;;;;5035245;28;20038;-78
2021/12/18 06:21:54;;;;;;;3.55;2.63;;;1.60;99.90;;;;;;5035975;28;20068;-76
2021/12/18 06:24:19;;;;;;;4.20;2.53;;;1.50;99.90;;;;;;5018508;28;20072;-78
2021/12/18 06:26:45;;;;;;;3.75;2.20;;;1.50;99.90;;;;;;5018795;28;20415;-78
2021/12/18 06:29:12;;;;;;;4.05;2.40;;;1.50;99.90;;;;;;5036578;28;20030;-78
2021/12/18 06:31:39;;;;;;;3.53;2.33;;;1.50;99.90;;;;;;5018759;28;20038;-80
2021/12/18 06:34:05;;;;;;;4.45;2.47;;;1.40;99.90;;;;;;5018369;28;20048;-79
2021/12/18 06:36:31;;;;;;;3.60;2.33;;;1.40;99.90;;;;;;5018330;28;20034;-76
2021/12/18 06:38:56;;;;;;;3.50;2.20;;;1.40;99.90;;;;;;5018032;28;20443;-78
2021/12/18 06:41:22;;;;;;;3.30;2.38;;;1.50;99.90;;;;;;5016616;28;20092;-78
2021/12/18 06:43:48;;;;;;;4.55;2.80;;;1.50;99.90;;;;;;5017412;28;20041;-78
2021/12/18 06:46:14;;;;;;;3.42;2.40;;;1.50;99.90;;;;;;5017200;28;20464;-78
2021/12/18 06:48:39;;;;;;;4.22;2.60;;;1.50;99.90;;;;;;5017217;28;20087;-78
2021/12/18 06:51:05;;;;;;;5.00;2.80;;;1.50;99.90;;;;;;5033544;28;20138;-78
2021/12/18 06:53:31;;;;;;;4.10;2.55;;;1.50;99.90;;;;;;5015731;28;20072;-78
2021/12/18 06:55:57;;;;;;;5.82;2.58;;;1.60;99.90;;;;;;4999780;28;20065;-79
2021/12/18 06:58:23;;;;;;;3.78;2.80;;;1.60;99.90;;;;;;5033587;28;20046;-78
2021/12/18 07:00:53;;;;;;;5.35;2.80;;;1.60;99.90;;;;;;5016444;28;20045;-78
2021/12/18 07:03:20;;;;;;;4.75;3.10;;;1.50;99.90;;;;;;5015107;28;20488;-78
2021/12/18 07:05:48;;;;;;;5.50;3.45;;;1.60;99.90;;;;;;5015713;28;20041;-78
2021/12/18 07:08:14;;;;;;;5.60;3.95;;;1.60;99.90;;;;;;5024479;28;20038;-78
2021/12/18 07:10:40;;;;;;;5.85;3.92;;;1.60;99.90;;;;;;4997911;28;20176;-78
2021/12/18 07:13:06;;;;;;;5.20;3.38;;;1.60;99.90;;;;;;5015801;28;20113;-77
2021/12/18 07:15:32;;;;;;;5.78;3.67;;;1.70;99.90;;;;;;5014402;28;20037;-78
2021/12/18 07:17:58;;;;;;;6.18;3.60;;;1.70;99.90;;;;;;5015865;28;20115;-78
2021/12/18 07:20:25;;;;;;;5.40;3.55;;;1.70;99.90;;;;;;4997191;28;20030;-78
2021/12/18 07:22:51;;;;;;;91.00;45.03;;;1.70;99.90;;;;;;5015523;28;20054;-80
2021/12/18 07:25:16;;;;;;;26.38;14.93;;;1.70;99.90;;;;;;4998021;28;20486;-78
2021/12/18 07:27:44;;;;;;;16.80;9.68;;;1.80;99.90;;;;;;4997544;28;20042;-78
2021/12/18 07:30:12;;;;;;;8.85;5.38;;;1.90;99.90;;;;;;5014226;28;20053;-78
2021/12/18 07:32:38;;;;;;;7.53;3.97;;;1.90;99.90;;;;;;5014005;28;20496;-77
2021/12/18 07:35:06;;;;;;;4.47;2.92;;;1.90;99.90;;;;;;5013802;28;20041;-77
2021/12/18 07:37:32;;;;;;;4.22;2.80;;;1.90;99.90;;;;;;4997527;28;20076;-77
2021/12/18 07:40:04;;;;;;;4.38;2.70;;;1.90;99.90;;;;;;5014985;28;20452;-77
2021/12/18 07:42:29;;;;;;;5.25;2.88;;;1.90;99.90;;;;;;4996960;28;20061;-77
2021/12/18 07:44:57;;;;;;;4.40;2.88;;;1.90;99.90;;;;;;5013855;28;20038;-81
2021/12/18 07:47:22;;;;;;;6.15;3.80;;;1.90;99.90;;;;;;5014312;28;20068;-80
2021/12/18 07:49:48;;;;;;;21.02;12.02;;;1.90;99.90;;;;;;5014516;28;20062;-81
2021/12/18 07:52:14;;;;;;;29.30;15.73;;;2.00;99.90;;;;;;5015193;28;20057;-76
2021/12/18 07:54:42;;;;;;;14.63;8.38;;;2.00;99.90;;;;;;4998270;28;20037;-82
2021/12/18 07:57:08;;;;;;;8.55;5.00;;;2.10;99.90;;;;;;4999713;28;20809;-82
2021/12/18 07:59:36;;;;;;;6.10;3.78;;;2.10;99.90;;;;;;5003223;28;20048;-79
2021/12/18 08:02:04;;;;;;;4.93;3.13;;;2.10;99.90;;;;;;5015119;28;20041;-80
2021/12/18 08:04:34;;;;;;;6.72;3.38;;;2.10;99.90;;;;;;5034056;28;20037;-80
2021/12/18 08:07:01;;;;;;;27.92;17.20;;;2.10;99.90;;;;;;5034507;28;20038;-79
2021/12/18 08:09:27;;;;;;;9.55;5.88;;;2.10;99.90;;;;;;5015249;28;20041;-80
2021/12/18 08:11:53;;;;;;;7.35;4.57;;;2.20;99.90;;;;;;5014994;28;20052;-80
2021/12/18 08:14:19;;;;;;;5.68;3.70;;;2.20;99.90;;;;;;5014485;28;20037;-82
2021/12/18 08:16:44;;;;;;;6.15;3.10;;;2.30;99.90;;;;;;5031527;28;20357;-81
2021/12/18 08:19:10;;;;;;;5.72;3.00;;;2.30;99.90;;;;;;5013444;28;20101;-78
2021/12/18 08:21:36;;;;;;;6.05;2.95;;;2.30;99.90;;;;;;5013419;28;20069;-79
2021/12/18 08:24:02;;;;;;;5.25;2.83;;;2.30;99.90;;;;;;5031750;28;20451;-78
2021/12/18 08:26:27;;;;;;;3.78;2.60;;;2.40;99.90;;;;;;5032587;28;20087;-79
2021/12/18 08:28:53;;;;;;;5.28;2.80;;;2.40;99.90;;;;;;5032615;28;20464;-79
2021/12/18 08:31:19;;;;;;;4.45;2.50;;;2.40;99.90;;;;;;5032377;28;20104;-78
2021/12/18 08:33:44;;;;;;;3.28;2.40;;;2.40;99.90;;;;;;5032669;28;20095;-77
2021/12/18 08:36:10;;;;;;;3.20;2.20;;;2.30;99.90;;;;;;5014540;28;20033;-78
2021/12/18 08:38:36;;;;;;;3.83;2.50;;;2.30;99.90;;;;;;5032240;28;20042;-77
2021/12/18 08:41:02;;;;;;;3.25;2.40;;;2.30;99.90;;;;;;5032155;28;20518;-78
2021/12/18 08:43:28;;;;;;;3.25;2.08;;;2.20;99.90;;;;;;5014281;28;20044;-78
2021/12/18 08:45:54;;;;;;;4.10;2.50;;;2.20;99.90;;;;;;5014791;28;20034;-78
2021/12/18 08:48:21;;;;;;;3.03;2.20;;;2.20;99.90;;;;;;5014205;28;20043;-80
2021/12/18 08:50:50;;;;;;;4.25;2.33;;;2.20;99.90;;;;;;5014494;28;20088;-79
2021/12/18 08:53:16;;;;;;;3.38;2.30;;;2.20;99.90;;;;;;5014167;28;20124;-77
2021/12/18 08:55:41;;;;;;;4.07;2.45;;;2.20;99.90;;;;;;5014377;28;20791;-79
2021/12/18 08:58:07;;;;;;;3.63;2.47;;;2.20;99.90;;;;;;5014512;28;20044;-79
2021/12/18 09:00:34;;;;;;;4.45;2.50;;;2.20;99.90;;;;;;5014452;28;20037;-78
2021/12/18 09:03:00;;;;;;;4.57;2.10;;;2.20;99.90;;;;;;5014321;28;20128;-78
2021/12/18 09:05:28;;;;;;;7.38;3.20;;;2.20;99.90;;;;;;5029773;28;20049;-78
2021/12/18 09:07:57;;;;;;;6.85;3.90;;;2.20;99.90;;;;;;5032353;28;20037;-76
2021/12/18 09:10:23;;;;;;;6.07;3.60;;;2.20;99.90;;;;;;5032498;28;20037;-78
2021/12/18 09:12:49;;;;;;;4.47;2.90;;;2.20;99.90;;;;;;5014351;28;20124;-79
2021/12/18 09:15:15;;;;;;;4.72;2.80;;;2.20;99.90;;;;;;5014418;28;20113;-77
2021/12/18 09:17:41;;;;;;;4.57;2.70;;;2.20;99.90;;;;;;5014094;28;20039;-79
2021/12/18 09:20:08;;;;;;;6.40;3.10;;;2.30;99.90;;;;;;5014159;28;20521;-78
2021/12/18 09:22:34;;;;;;;6.90;3.45;;;2.20;99.90;;;;;;5031729;28;20030;-77
2021/12/18 09:25:00;;;;;;;7.75;3.08;;;2.20;99.90;;;;;;5013995;28;20444;-78
2021/12/18 09:27:26;;;;;;;18.00;8.13;;;2.30;99.90;;;;;;5033028;28;20029;-78
2021/12/18 09:29:52;;;;;;;10.63;5.15;;;2.30;99.90;;;;;;5018307;28;20029;-77
2021/12/18 09:32:17;;;;;;;8.30;4.00;;;2.30;99.90;;;;;;5018146;28;20030;-79
2021/12/18 09:34:43;;;;;;;4.47;2.83;;;2.30;99.90;;;;;;5018105;28;20057;-79
2021/12/18 09:37:15;;;;;;;4.50;2.50;;;2.30;99.90;;;;;;5017899;28;20400;-78
2021/12/18 09:39:41;;;;;;;4.22;2.50;;;2.30;99.90;;;;;;5018460;28;20038;-79
2021/12/18 09:42:07;;;;;;;4.10;2.42;;;2.20;99.90;;;;;;5017349;28;20063;-77
2021/12/18 09:44:34;;;;;;;3.45;2.33;;;2.20;99.90;;;;;;5017570;28;20041;-78
2021/12/18 09:47:02;;;;;;;4.20;2.30;;;2.20;99.90;;;;;;5017851;28;20080;-78
2021/12/18 09:49:28;;;;;;;4.05;2.60;;;2.20;99.90;;;;;;5032982;28;20033;-77
2021/12/18 09:51:54;;;;;;;3.65;2.50;;;2.10;99.90;;;;;;5017207;28;20025;-77
2021/12/18 09:54:21;;;;;;;3.38;2.13;;;2.10;99.90;;;;;;5017801;28;20468;-79
2021/12/18 09:56:47;;;;;;;2.78;1.98;;;2.10;99.90;;;;;;5017755;28;20198;-77
2021/12/18 09:59:12;;;;;;;6.43;3.55;;;2.10;99.90;;;;;;5035834;28;20034;-78
2021/12/18 10:01:40;;;;;;;15.18;8.93;;;2.00;99.90;;;;;;5035720;28;20824;-77
2021/12/18 10:04:27;;;;;;;6.70;4.07;;;2.00;99.90;;;;;;5035289;28;20032;-77
2021/12/18 10:06:56;;;;;;;5.05;3.00;;;2.00;99.90;;;;;;5015307;28;20408;-78
2021/12/18 10:09:25;;;;;;;4.57;2.65;;;2.00;99.90;;;;;;5034903;28;20041;-78
2021/12/18 10:11:54;;;;;;;4.13;2.42;;;1.90;99.90;;;;;;5015230;28;20040;-78
2021/12/18 10:14:36;;;;;;;4.15;2.42;;;2.00;99.90;;;;;;5017200;28;20029;-79
2021/12/18 10:17:03;;;;;;;4.60;2.60;;;2.00;99.60;;;;;;5034133;28;20455;-78
2021/12/18 10:19:35;;;;;;;3.17;2.17;;;2.00;99.90;;;;;;5014795;28;20137;-79
2021/12/18 10:22:06;;;;;;;3.10;2.03;;;2.00;99.90;;;;;;5016968;28;20029;-79
2021/12/18 10:24:34;;;;;;;3.13;1.70;;;2.00;99.90;;;;;;5014901;28;20560;-78
2021/12/18 10:27:01;;;;;;;14.55;7.93;;;2.00;99.90;;;;;;5017350;28;20041;-80
2021/12/18 10:29:35;;;;;;;24.40;12.90;;;2.00;99.90;;;;;;5035286;28;20033;-79
2021/12/18 10:32:15;;;;;;;13.90;7.50;;;2.00;99.90;;;;;;5017117;28;20030;-78
2021/12/18 10:34:49;;;;;;;10.40;5.43;;;2.00;99.20;;;;;;5016086;28;20048;-80
2021/12/18 10:37:23;;;;;;;7.25;3.95;;;2.00;99.90;;;;;;5013638;28;20072;-78
2021/12/18 10:39:56;;;;;;;4.55;3.10;;;2.00;99.00;;;;;;5014282;28;20040;-80
2021/12/18 10:42:27;;;;;;;4.88;2.70;;;2.00;99.70;;;;;;5016612;28;20041;-77
2021/12/18 10:45:08;;;;;;;6.32;3.60;;;2.00;99.00;;;;;;5015149;28;20047;-78
2021/12/18 10:47:54;;;;;;;3.92;2.67;;;2.00;99.40;;;;;;5015235;28;20029;-78
2021/12/18 10:50:20;;;;;;;5.03;3.00;;;2.00;96.80;;;;;;5033483;28;20034;-79
2021/12/18 10:53:06;;;;;;;5.47;2.50;;;2.00;97.50;;;;;;5016479;28;20055;-79
2021/12/18 10:55:49;;;;;;;2.75;1.85;;;1.90;94.80;;;;;;5032149;28;20383;-77
2021/12/18 10:58:29;;;;;;;2.78;1.90;;;1.90;95.70;;;;;;5032961;28;20030;-77
2021/12/18 11:00:58;;;;;;;2.22;1.58;;;1.90;96.00;;;;;;5014789;28;20029;-77
2021/12/18 11:03:38;;;;;;;2.20;1.10;;;1.90;95.00;;;;;;5016386;28;20438;-80
2021/12/18 11:06:17;;;;;;;2.72;1.20;;;1.90;95.40;;;;;;5016391;28;20399;-77
2021/12/18 11:09:05;;;;;;;3.13;1.50;;;1.90;95.10;;;;;;5034124;28;20042;-78
2021/12/18 11:14:14;;;;;;;2.88;1.63;;;2.00;95.30;;;;;;5031542;28;20037;-77
2021/12/18 11:16:44;;;;;;;12.15;7.85;;;1.90;95.00;;;;;;5015992;28;20041;-79
2021/12/18 11:19:18;;;;;;;9.52;4.95;;;1.90;94.90;;;;;;5031826;28;20068;-79
2021/12/18 11:21:53;;;;;;;5.18;2.80;;;1.90;94.90;;;;;;5033819;28;20040;-77
2021/12/18 11:24:30;;;;;;;3.67;2.03;;;1.90;93.10;;;;;;5033975;28;20037;-77
2021/12/18 11:27:00;;;;;;;3.83;1.90;;;1.90;93.60;;;;;;5014393;28;20034;-78
2021/12/18 11:29:44;;;;;;;2.17;1.65;;;1.90;94.90;;;;;;5034326;28;20092;-78
2021/12/18 11:32:16;;;;;;;2.53;1.80;;;1.90;94.70;;;;;;5013280;28;20044;-79
2021/12/18 11:34:43;;;;;;;2.45;1.50;;;1.90;94.80;;;;;;5034169;28;20121;-78
2021/12/18 11:37:11;;;;;;;3.25;2.03;;;1.80;95.20;;;;;;5013261;28;20040;-78
2021/12/18 11:39:39;;;;;;;2.50;1.73;;;1.80;95.10;;;;;;5033510;28;20472;-78
2021/12/18 11:42:05;;;;;;;2.35;1.40;;;1.80;94.90;;;;;;5033427;28;20045;-78
2021/12/18 11:44:33;;;;;;;2.60;1.38;;;1.80;94.50;;;;;;5015531;28;20474;-79
2021/12/18 11:47:20;;;;;;;3.28;1.30;;;1.80;94.00;;;;;;5015699;28;20045;-78
2021/12/18 11:49:46;;;;;;;1.70;1.02;;;1.70;94.00;;;;;;5014793;28;20053;-79
2021/12/18 11:52:12;;;;;;;2.45;1.50;;;1.70;94.00;;;;;;5015456;28;20471;-78
2021/12/18 11:54:45;;;;;;;2.83;1.50;;;1.70;93.50;;;;;;5015275;28;20088;-78
2021/12/18 11:57:12;;;;;;;2.13;1.30;;;1.60;91.90;;;;;;5012821;28;20033;-79
2021/12/18 11:59:44;;;;;;;2.80;1.70;;;1.60;93.20;;;;;;5033360;28;20061;-77
2021/12/18 12:02:12;;;;;;;2.65;1.50;;;1.50;92.90;;;;;;5012774;28;20033;-78
2021/12/18 12:05:05;;;;;;;2.45;1.63;;;1.50;94.00;;;;;;5032799;28;20037;-79
2021/12/18 12:07:31;;;;;;;2.90;1.73;;;1.40;92.60;;;;;;5012673;28;20475;-77
2021/12/18 12:10:46;;;;;;;2.13;1.52;;;1.40;94.60;;;;;;5014980;28;20038;-77
2021/12/18 12:13:09;;;;;;;2.25;1.40;;;1.40;94.00;;;;;;5032453;28;20029;-78
2021/12/18 12:15:49;;;;;;;5.07;1.35;;;1.40;94.40;;;;;;5032589;28;20030;-78
2021/12/18 12:18:15;;;;;;;2.17;1.48;;;1.50;93.70;;;;;;5012900;28;20026;-78
2021/12/18 12:20:48;;;;;;;2.45;1.38;;;1.40;92.60;;;;;;5015119;28;20133;-80
2021/12/18 12:23:15;;;;;;;1.90;1.40;;;1.50;93.20;;;;;;5012807;28;20033;-78
2021/12/18 12:25:50;;;;;;;1.88;1.40;;;1.50;93.30;;;;;;5015087;28;20034;-79
2021/12/18 12:28:23;;;;;;;3.30;1.90;;;1.50;92.00;;;;;;5012999;28;20029;-78
2021/12/18 12:30:48;;;;;;;3.33;1.67;;;1.50;91.80;;;;;;5014683;28;20506;-79
2021/12/18 12:33:33;;;;;;;2.05;1.50;;;1.50;92.20;;;;;;5014833;28;20073;-79
2021/12/18 12:36:05;;;;;;;2.38;1.70;;;1.50;91.70;;;;;;5013599;28;20032;-78
2021/12/18 12:38:40;;;;;;;8.77;4.80;;;1.40;90.90;;;;;;5031221;28;20033;-77
2021/12/18 12:41:32;;;;;;;8.52;4.70;;;1.40;90.60;;;;;;5014442;28;20060;-79
2021/12/18 12:44:05;;;;;;;6.78;2.95;;;1.40;90.90;;;;;;5013264;28;20041;-77
2021/12/18 12:46:31;;;;;;;4.10;2.25;;;1.30;91.10;;;;;;5012447;28;20041;-79
2021/12/18 12:49:11;;;;;;;3.17;2.22;;;1.20;90.60;;;;;;5014551;28;20394;-79
2021/12/18 12:52:04;;;;;;;2.47;1.33;;;1.20;90.50;;;;;;5012800;28;20043;-78
2021/12/18 12:54:57;;;;;;;2.10;1.50;;;1.20;89.40;;;;;;5014723;28;20124;-78
2021/12/18 12:57:23;;;;;;;2.28;1.60;;;1.20;88.40;;;;;;5014914;28;20034;-78
2021/12/18 13:00:12;;;;;;;4.78;2.10;;;1.20;91.60;;;;;;5013791;28;20029;-78
2021/12/18 13:02:49;;;;;;;3.90;1.98;;;1.10;89.40;;;;;;5022008;28;20033;-78
2021/12/18 13:05:19;;;;;;;4.10;2.08;;;1.10;91.20;;;;;;5012254;28;20479;-78
2021/12/18 13:08:00;;;;;;;5.95;2.22;;;1.10;91.40;;;;;;5014707;28;20045;-81
2021/12/18 13:10:35;;;;;;;6.65;2.30;;;1.00;90.60;;;;;;5014380;28;20037;-78
2021/12/18 13:13:16;;;;;;;5.78;2.30;;;1.00;90.70;;;;;;5014931;28;20099;-78
2021/12/18 13:15:45;;;;;;;;;;;0.90;90.90;;;;;;5013930;28;20438;-79
2021/12/18 13:18:12;;;;;;;5.55;2.42;;;0.90;90.30;;;;;;5022265;28;19909;-81
2021/12/18 13:20:48;;;;;;;5.10;2.33;;;0.90;92.10;;;;;;4994933;28;20041;-81
2021/12/18 13:23:20;;;;;;;5.60;2.75;;;1.00;92.20;;;;;;5014228;28;20044;-81
2021/12/18 13:25:55;;;;;;;5.13;2.22;;;1.00;92.60;;;;;;5029801;28;20546;-78
2021/12/18 13:28:23;;;;;;;3.50;2.10;;;1.00;92.50;;;;;;5011425;28;20037;-83
2021/12/18 13:30:54;;;;;;;3.60;2.10;;;1.00;92.50;;;;;;5013917;28;20113;-81
2021/12/18 13:33:25;;;;;;;4.53;2.20;;;1.00;92.60;;;;;;5014281;28;20055;-79
2021/12/18 13:35:59;;;;;;;5.20;2.30;;;1.00;92.80;;;;;;4995489;28;20041;-80
2021/12/18 13:38:33;;;;;;;3.72;2.10;;;1.00;93.20;;;;;;5013751;28;20037;-80
2021/12/18 13:41:08;;;;;;;4.68;1.90;;;1.00;93.80;;;;;;5014314;28;20091;-81
2021/12/18 13:43:35;;;;;;;3.78;1.70;;;1.00;93.80;;;;;;5011761;28;20042;-80
2021/12/18 13:46:21;;;;;;;2.70;1.52;;;1.00;94.40;;;;;;5014042;28;20048;-80
2021/12/18 13:48:49;;;;;;;3.50;1.90;;;1.10;93.80;;;;;;5013958;28;20029;-81
2021/12/18 13:51:20;;;;;;;4.35;2.40;;;1.10;94.70;;;;;;5013927;28;20073;-80
2021/12/18 13:54:01;;;;;;;3.83;2.40;;;1.10;94.40;;;;;;5031320;28;20040;-81